Tenacity Venture — VRPX2 — position and weather

sailwx.info

Track history (hours):
 
Tides and Currents Weather Stations Pressure Air Temp Water Temp Dewpoint Dewpoint Depression Visibility Wind Speed Wind Dir Waves Ship Positions

Tenacity Venture

Last reported at 2017-Nov-19 09:34 UTC. Time now 2017-Nov-20 21:22 UTC.
Position N 55°58' W 004°53'.

Length 247 m; draft 12.5 m.

Type: Tanker. MMSI: 477010100.

Date/timePositionNaut miles runAvg speedWind from/ knotsBaromVisibWave heightAir tempDewpointWater temp
2017-Nov-19 09:34N 55°58' W 004°53'1 9.0
2017-Nov-19 09:30N 55°58' W 004°53'4 9.2
2017-Nov-19 09:01N 55°53' W 004°56'5 9.5
2017-Nov-19 08:31N 55°49' W 004°57'5 9.5
2017-Nov-19 08:01N 55°44' W 004°59'4 7.9
2017-Nov-19 07:30N 55°40' W 004°59'4 8.2
2017-Nov-19 07:01N 55°36' W 004°59'5 9.3
2017-Nov-19 06:30N 55°31' W 004°59'611.9
2017-Nov-19 06:01N 55°26' W 005°02'1712.4
2017-Nov-19 04:40N 55°12' W 005°18'212.6
2017-Nov-19 04:28N 55°10' W 005°20'612.5
2017-Nov-19 04:01N 55°04' W 005°24'713.8
2017-Nov-19 03:30N 54°57' W 005°26'713.3
2017-Nov-19 03:01N 54°51' W 005°24'714.3
2017-Nov-19 02:30N 54°45' W 005°17'714.2
2017-Nov-19 02:00N 54°39' W 005°09'713.2
2017-Nov-19 01:30N 54°33' W 005°06'713.5
2017-Nov-19 01:00N 54°26' W 005°07'713.0
2017-Nov-19 00:30N 54°20' W 005°07'713.0
2017-Nov-19 00:00N 54°13' W 005°07'11013.2
2017-Nov-18 15:43N 52°27' W 005°50'211.0
2017-Nov-18 15:31N 52°24' W 005°51'510.6
2017-Nov-18 15:00N 52°19' W 005°54'510.2
2017-Nov-18 14:30N 52°14' W 005°56'510.0
2017-Nov-18 14:00N 52°10' W 005°59'5 9.8
2017-Nov-18 13:30N 52°06' W 006°03'510.7
2017-Nov-18 13:00N 52°02' W 006°10'611.1
2017-Nov-18 12:30N 51°59' W 006°16'611.1
2017-Nov-18 12:01N 51°54' W 006°21'13311.5
2017-Nov-18 00:26N 49°48' W 007°28'10211.9
2017-Nov-17 15:52N 48°11' W 008°18'47212.1
2017-Nov-16 00:49N 40°26' W 010°05'612.5
2017-Nov-16 00:21N 40°20' W 010°04'3212.6
2017-Nov-15 21:48N 39°48' W 009°57'512.4
2017-Nov-15 21:25N 39°43' W 009°57'512.6
2017-Nov-15 21:00N 39°38' W 009°57'612.7
2017-Nov-15 20:30N 39°32' W 009°57'612.5
2017-Nov-15 20:00N 39°26' W 009°57'612.6
2017-Nov-15 19:30N 39°19' W 009°57'612.7
2017-Nov-15 19:00N 39°13' W 009°57'612.6
2017-Nov-15 18:30N 39°07' W 009°57'612.6
2017-Nov-15 18:00N 39°00' W 009°57'612.6
2017-Nov-15 17:30N 38°54' W 009°57'612.8
2017-Nov-15 17:00N 38°48' W 009°57'612.9
2017-Nov-15 16:30N 38°41' W 009°57'612.5
2017-Nov-15 16:00N 38°35' W 009°54'612.3
2017-Nov-15 15:30N 38°36' W 009°46'612.7
2017-Nov-15 15:00N 38°37' W 009°38'612.9
2017-Nov-15 14:30N 38°37' W 009°30'5 9.5
2017-Nov-15 14:00N 38°37' W 009°24'4 8.2
2017-Nov-15 13:30N 38°39' W 009°19'4 8.0
2017-Nov-15 13:00N 38°41' W 009°15'2 3.3
2017-Nov-15 12:28N 38°41' W 009°12'0 0.2
2017-Nov-15 11:58N 38°41' W 009°12'0 0.0
2017-Nov-15 10:37N 38°41' W 009°12'0 0.0
2017-Nov-15 10:28N 38°41' W 009°12'0 0.1
2017-Nov-15 09:58N 38°41' W 009°12'0 0.1
2017-Nov-15 09:07N 38°41' W 009°12'0 0.2
2017-Nov-15 08:58N 38°41' W 009°12'0 0.1
2017-Nov-15 08:25N 38°41' W 009°12'0 0.4
2017-Nov-15 07:49N 38°41' W 009°13'0 0.2
2017-Nov-15 07:28N 38°41' W 009°13'0 0.1
2017-Nov-15 06:58N 38°41' W 009°13'0 0.0
2017-Nov-15 05:55N 38°41' W 009°13'0 0.0
2017-Nov-15 05:25N 38°41' W 009°13'0 0.0
2017-Nov-15 04:46N 38°41' W 009°13'0 0.0
2017-Nov-15 04:30N 38°41' W 009°13'0 0.0
2017-Nov-15 03:59N 38°41' W 009°13'0 0.0
2017-Nov-15 03:30N 38°41' W 009°13'0 0.1
2017-Nov-15 03:00N 38°41' W 009°13'0 0.1
2017-Nov-15 02:30N 38°41' W 009°13'1 2.2
2017-Nov-15 02:00N 38°41' W 009°14'2 5.0
2017-Nov-15 01:31N 38°41' W 009°17'4 8.2
2017-Nov-15 01:00N 38°38' W 009°21'3 6.2
2017-Nov-15 00:30N 38°38' W 009°25'2 3.3
2017-Nov-15 00:00N 38°39' W 009°27'3 6.2
2017-Nov-14 23:30N 38°36' W 009°29'4 8.7
2017-Nov-14 23:00N 38°32' W 009°31'5 9.3
2017-Nov-14 22:30N 38°28' W 009°33'611.8
2017-Nov-14 22:00N 38°22' W 009°36'612.2
2017-Nov-14 21:30N 38°17' W 009°40'612.3
2017-Nov-14 21:00N 38°11' W 009°43'611.6
2017-Nov-14 20:31N 38°06' W 009°46'611.7
2017-Nov-14 20:00N 38°00' W 009°49'612.5
2017-Nov-14 19:30N 37°54' W 009°51'612.2
2017-Nov-14 19:01N 37°49' W 009°53'612.2
2017-Nov-14 18:30N 37°43' W 009°57'812.3
2017-Nov-14 17:53N 37°37' W 010°03'512.5
2017-Nov-14 17:30N 37°33' W 010°06'612.4
2017-Nov-14 16:59N 37°27' W 010°09'712.3
2017-Nov-14 16:22N 37°20' W 010°12'612.1
2017-Nov-14 15:53N 37°14' W 010°15'45411.9
2017-Nov-13 01:52N 30°32' W 014°28'411.9
2017-Nov-13 01:29N 30°28' W 014°30'611.9
2017-Nov-13 01:00N 30°23' W 014°33'611.9
2017-Nov-13 00:30N 30°17' W 014°36'611.9
2017-Nov-13 00:01N 30°12' W 014°40'1112.0
2017-Nov-12 23:05N 30°02' W 014°45'112.0
2017-Nov-12 23:01N 30°02' W 014°46'611.9
2017-Nov-12 22:31N 29°56' W 014°49'711.9
2017-Nov-12 21:57N 29°50' W 014°52'511.9
2017-Nov-12 21:30N 29°45' W 014°55'611.8
2017-Nov-12 21:00N 29°40' W 014°58'712.0
2017-Nov-12 20:23N 29°34' W 015°02'612.1
2017-Nov-12 19:55N 29°29' W 015°06'512.2
2017-Nov-12 19:29N 29°24' W 015°08'712.3
2017-Nov-12 18:54N 29°18' W 015°12'512.2
2017-Nov-12 18:30N 29°14' W 015°15'612.3
2017-Nov-12 18:00N 29°08' W 015°18'612.4
2017-Nov-12 17:30N 29°03' W 015°21'612.3
2017-Nov-12 17:00N 28°57' W 015°25'612.3
2017-Nov-12 16:30N 28°52' W 015°28'612.3
2017-Nov-12 16:00N 28°46' W 015°31'612.3
2017-Nov-12 15:30N 28°41' W 015°35'612.1
2017-Nov-12 15:00N 28°36' W 015°39'612.3
2017-Nov-12 14:30N 28°32' W 015°43'612.3
2017-Nov-12 14:01N 28°27' W 015°48'612.1
2017-Nov-12 13:31N 28°22' W 015°52'612.0
2017-Nov-12 13:00N 28°18' W 015°57'26111.5
2017-Nov-11 14:13N 24°16' W 017°49'311.8
2017-Nov-11 14:00N 24°14' W 017°50'611.6
2017-Nov-11 13:30N 24°10' W 017°54'611.6
2017-Nov-11 12:59N 24°04' W 017°57'611.6
2017-Nov-11 12:28N 23°59' W 017°60'611.6
2017-Nov-11 11:57N 23°53' W 018°02'611.8
2017-Nov-11 11:27N 23°48' W 018°05'511.9
2017-Nov-11 11:00N 23°43' W 018°07'2911.8
2017-Nov-11 08:31N 23°15' W 018°15'011.7
2017-Nov-11 08:29N 23°14' W 018°15'5 9.5
2017-Nov-11 07:55N 23°11' W 018°20'2011.3
2017-Nov-11 06:11N 23°03' W 018°39'811.7
2017-Nov-11 05:29N 22°55' W 018°43'611.6
2017-Nov-11 05:01N 22°51' W 018°46'811.4
2017-Nov-11 04:17N 22°43' W 018°50'18011.3
2017-Nov-10 12:19N 19°47' W 019°30'411.9
2017-Nov-10 12:01N 19°44' W 019°29'  
Track history (hours):
 
Tides and Currents Weather Stations Pressure Air Temp Water Temp Dewpoint Dewpoint Depression Visibility Wind Speed Wind Dir Waves Ship Positions

Tenacity Venture

Last reported at 2017-Nov-19 09:34 UTC. Time now 2017-Nov-20 21:22 UTC.
Position N 55°58' W 004°53'.

Length 247 m; draft 12.5 m.

Type: Tanker. MMSI: 477010100.

Date/timePositionNaut miles runAvg speedWind from/ knotsBaromVisibWave heightAir tempDewpointWater temp
2017-Nov-19 09:34N 55°58' W 004°53'1 9.0
2017-Nov-19 09:30N 55°58' W 004°53'4 9.2
2017-Nov-19 09:01N 55°53' W 004°56'5 9.5
2017-Nov-19 08:31N 55°49' W 004°57'5 9.5
2017-Nov-19 08:01N 55°44' W 004°59'4 7.9
2017-Nov-19 07:30N 55°40' W 004°59'4 8.2
2017-Nov-19 07:01N 55°36' W 004°59'5 9.3
2017-Nov-19 06:30N 55°31' W 004°59'611.9
2017-Nov-19 06:01N 55°26' W 005°02'1712.4
2017-Nov-19 04:40N 55°12' W 005°18'212.6
2017-Nov-19 04:28N 55°10' W 005°20'612.5
2017-Nov-19 04:01N 55°04' W 005°24'713.8
2017-Nov-19 03:30N 54°57' W 005°26'713.3
2017-Nov-19 03:01N 54°51' W 005°24'714.3
2017-Nov-19 02:30N 54°45' W 005°17'714.2
2017-Nov-19 02:00N 54°39' W 005°09'713.2
2017-Nov-19 01:30N 54°33' W 005°06'713.5
2017-Nov-19 01:00N 54°26' W 005°07'713.0
2017-Nov-19 00:30N 54°20' W 005°07'713.0
2017-Nov-19 00:00N 54°13' W 005°07'11013.2
2017-Nov-18 15:43N 52°27' W 005°50'211.0
2017-Nov-18 15:31N 52°24' W 005°51'510.6
2017-Nov-18 15:00N 52°19' W 005°54'510.2
2017-Nov-18 14:30N 52°14' W 005°56'510.0
2017-Nov-18 14:00N 52°10' W 005°59'5 9.8
2017-Nov-18 13:30N 52°06' W 006°03'510.7
2017-Nov-18 13:00N 52°02' W 006°10'611.1
2017-Nov-18 12:30N 51°59' W 006°16'611.1
2017-Nov-18 12:01N 51°54' W 006°21'13311.5
2017-Nov-18 00:26N 49°48' W 007°28'10211.9
2017-Nov-17 15:52N 48°11' W 008°18'47212.1
2017-Nov-16 00:49N 40°26' W 010°05'612.5
2017-Nov-16 00:21N 40°20' W 010°04'3212.6
2017-Nov-15 21:48N 39°48' W 009°57'512.4
2017-Nov-15 21:25N 39°43' W 009°57'512.6
2017-Nov-15 21:00N 39°38' W 009°57'612.7
2017-Nov-15 20:30N 39°32' W 009°57'612.5
2017-Nov-15 20:00N 39°26' W 009°57'612.6
2017-Nov-15 19:30N 39°19' W 009°57'612.7
2017-Nov-15 19:00N 39°13' W 009°57'612.6
2017-Nov-15 18:30N 39°07' W 009°57'612.6
2017-Nov-15 18:00N 39°00' W 009°57'612.6
2017-Nov-15 17:30N 38°54' W 009°57'612.8
2017-Nov-15 17:00N 38°48' W 009°57'612.9
2017-Nov-15 16:30N 38°41' W 009°57'612.5
2017-Nov-15 16:00N 38°35' W 009°54'612.3
2017-Nov-15 15:30N 38°36' W 009°46'612.7
2017-Nov-15 15:00N 38°37' W 009°38'612.9
2017-Nov-15 14:30N 38°37' W 009°30'5 9.5
2017-Nov-15 14:00N 38°37' W 009°24'4 8.2
2017-Nov-15 13:30N 38°39' W 009°19'4 8.0
2017-Nov-15 13:00N 38°41' W 009°15'2 3.3
2017-Nov-15 12:28N 38°41' W 009°12'0 0.2
2017-Nov-15 11:58N 38°41' W 009°12'0 0.0
2017-Nov-15 10:37N 38°41' W 009°12'0 0.0
2017-Nov-15 10:28N 38°41' W 009°12'0 0.1
2017-Nov-15 09:58N 38°41' W 009°12'0 0.1
2017-Nov-15 09:07N 38°41' W 009°12'0 0.2
2017-Nov-15 08:58N 38°41' W 009°12'0 0.1
2017-Nov-15 08:25N 38°41' W 009°12'0 0.4
2017-Nov-15 07:49N 38°41' W 009°13'0 0.2
2017-Nov-15 07:28N 38°41' W 009°13'0 0.1
2017-Nov-15 06:58N 38°41' W 009°13'0 0.0
2017-Nov-15 05:55N 38°41' W 009°13'0 0.0
2017-Nov-15 05:25N 38°41' W 009°13'0 0.0
2017-Nov-15 04:46N 38°41' W 009°13'0 0.0
2017-Nov-15 04:30N 38°41' W 009°13'0 0.0
2017-Nov-15 03:59N 38°41' W 009°13'0 0.0
2017-Nov-15 03:30N 38°41' W 009°13'0 0.1
2017-Nov-15 03:00N 38°41' W 009°13'0 0.1
2017-Nov-15 02:30N 38°41' W 009°13'1 2.2
2017-Nov-15 02:00N 38°41' W 009°14'2 5.0
2017-Nov-15 01:31N 38°41' W 009°17'4 8.2
2017-Nov-15 01:00N 38°38' W 009°21'3 6.2
2017-Nov-15 00:30N 38°38' W 009°25'2 3.3
2017-Nov-15 00:00N 38°39' W 009°27'3 6.2
2017-Nov-14 23:30N 38°36' W 009°29'4 8.7
2017-Nov-14 23:00N 38°32' W 009°31'5 9.3
2017-Nov-14 22:30N 38°28' W 009°33'611.8
2017-Nov-14 22:00N 38°22' W 009°36'612.2
2017-Nov-14 21:30N 38°17' W 009°40'612.3
2017-Nov-14 21:00N 38°11' W 009°43'611.6
2017-Nov-14 20:31N 38°06' W 009°46'611.7
2017-Nov-14 20:00N 38°00' W 009°49'612.5
2017-Nov-14 19:30N 37°54' W 009°51'612.2
2017-Nov-14 19:01N 37°49' W 009°53'612.2
2017-Nov-14 18:30N 37°43' W 009°57'812.3
2017-Nov-14 17:53N 37°37' W 010°03'512.5
2017-Nov-14 17:30N 37°33' W 010°06'612.4
2017-Nov-14 16:59N 37°27' W 010°09'712.3
2017-Nov-14 16:22N 37°20' W 010°12'612.1
2017-Nov-14 15:53N 37°14' W 010°15'45411.9
2017-Nov-13 01:52N 30°32' W 014°28'411.9
2017-Nov-13 01:29N 30°28' W 014°30'611.9
2017-Nov-13 01:00N 30°23' W 014°33'611.9
2017-Nov-13 00:30N 30°17' W 014°36'611.9
2017-Nov-13 00:01N 30°12' W 014°40'1112.0
2017-Nov-12 23:05N 30°02' W 014°45'112.0
2017-Nov-12 23:01N 30°02' W 014°46'611.9
2017-Nov-12 22:31N 29°56' W 014°49'711.9
2017-Nov-12 21:57N 29°50' W 014°52'511.9
2017-Nov-12 21:30N 29°45' W 014°55'611.8
2017-Nov-12 21:00N 29°40' W 014°58'712.0
2017-Nov-12 20:23N 29°34' W 015°02'612.1
2017-Nov-12 19:55N 29°29' W 015°06'512.2
2017-Nov-12 19:29N 29°24' W 015°08'712.3
2017-Nov-12 18:54N 29°18' W 015°12'512.2
2017-Nov-12 18:30N 29°14' W 015°15'612.3
2017-Nov-12 18:00N 29°08' W 015°18'612.4
2017-Nov-12 17:30N 29°03' W 015°21'612.3
2017-Nov-12 17:00N 28°57' W 015°25'612.3
2017-Nov-12 16:30N 28°52' W 015°28'612.3
2017-Nov-12 16:00N 28°46' W 015°31'612.3
2017-Nov-12 15:30N 28°41' W 015°35'612.1
2017-Nov-12 15:00N 28°36' W 015°39'612.3
2017-Nov-12 14:30N 28°32' W 015°43'612.3
2017-Nov-12 14:01N 28°27' W 015°48'612.1
2017-Nov-12 13:31N 28°22' W 015°52'612.0
2017-Nov-12 13:00N 28°18' W 015°57'26111.5
2017-Nov-11 14:13N 24°16' W 017°49'311.8
2017-Nov-11 14:00N 24°14' W 017°50'611.6
2017-Nov-11 13:30N 24°10' W 017°54'611.6
2017-Nov-11 12:59N 24°04' W 017°57'611.6
2017-Nov-11 12:28N 23°59' W 017°60'611.6
2017-Nov-11 11:57N 23°53' W 018°02'611.8
2017-Nov-11 11:27N 23°48' W 018°05'511.9
2017-Nov-11 11:00N 23°43' W 018°07'2911.8
2017-Nov-11 08:31N 23°15' W 018°15'011.7
2017-Nov-11 08:29N 23°14' W 018°15'5 9.5
2017-Nov-11 07:55N 23°11' W 018°20'2011.3
2017-Nov-11 06:11N 23°03' W 018°39'811.7
2017-Nov-11 05:29N 22°55' W 018°43'611.6
2017-Nov-11 05:01N 22°51' W 018°46'811.4
2017-Nov-11 04:17N 22°43' W 018°50'18011.3
2017-Nov-10 12:19N 19°47' W 019°30'411.9
2017-Nov-10 12:01N 19°44' W 019°29'  

Dump ship's entire track history